Time;durP1;ratioP1;P1;durP2;ratioP2;P2;SDS_P1;SDS_P2;PMS_P1;PMS_P2;Temp;Humidity;BMP_temperature;BMP_pressure;BME280_temperature;BME280_humidity;BME280_pressure;Samples;Min_cycle;Max_cycle;Signal;HPM_P1;HPM_P2
2021/07/18 00:02:11;;;;;;;4.22;3.05;;;;;;;23.27;57.04;102186.69;5042902;28;20061;-44
2021/07/18 00:04:38;;;;;;;8.82;4.13;;;;;;;23.22;56.85;102184.25;5049665;28;20062;-44
2021/07/18 00:07:04;;;;;;;7.55;3.60;;;;;;;23.13;57.00;102186.66;5044496;28;20061;-44
2021/07/18 00:09:32;;;;;;;5.60;2.95;;;;;;;23.09;57.15;102191.47;5049509;28;20485;-43
2021/07/18 00:11:59;;;;;;;5.63;3.65;;;;;;;23.05;57.54;102185.00;5047730;28;20047;-42
2021/07/18 00:14:26;;;;;;;6.95;2.60;;;;;;;22.99;57.52;102197.88;5046472;28;20067;-43
2021/07/18 00:16:53;;;;;;;5.32;3.08;;;;;;;22.94;57.68;102189.78;5047139;28;20486;-44
2021/07/18 00:19:20;;;;;;;6.20;3.30;;;;;;;22.89;57.49;102182.50;5045814;28;20172;-50
2021/07/18 00:21:48;;;;;;;6.20;3.20;;;;;;;22.89;57.65;102178.84;5043622;28;20043;-44
2021/07/18 00:24:15;;;;;;;3.72;2.53;;;;;;;22.87;57.76;102186.91;5046156;28;20057;-44
2021/07/18 00:26:42;;;;;;;9.43;3.20;;;;;;;22.84;57.56;102176.41;5040933;28;20798;-43
2021/07/18 00:29:09;;;;;;;6.57;2.90;;;;;;;22.81;57.66;102180.00;5043953;28;20055;-47
2021/07/18 00:31:36;;;;;;;3.67;2.67;;;;;;;22.77;57.54;102182.03;5043766;28;20056;-43
2021/07/18 00:34:03;;;;;;;5.30;2.33;;;;;;;22.70;57.73;102179.13;5047936;28;20044;-43
2021/07/18 00:36:30;;;;;;;4.75;1.80;;;;;;;22.60;58.20;102185.50;5046636;28;20052;-52
2021/07/18 00:38:57;;;;;;;7.63;2.58;;;;;;;22.55;58.13;102183.03;5053807;28;20101;-45
2021/07/18 00:41:23;;;;;;;4.88;2.00;;;;;;;22.47;58.50;102181.34;5049436;28;20056;-48
2021/07/18 00:43:50;;;;;;;2.80;1.98;;;;;;;22.39;58.73;102181.31;5044870;28;20076;-43
2021/07/18 00:46:17;;;;;;;3.47;2.55;;;;;;;22.33;59.12;102188.50;5042172;28;20056;-45
2021/07/18 00:48:44;;;;;;;8.02;2.45;;;;;;;22.31;59.29;102195.75;5047676;28;20059;-42
2021/07/18 00:51:11;;;;;;;5.25;2.60;;;;;;;22.31;59.22;102188.09;5048294;28;20143;-42
2021/07/18 00:53:37;;;;;;;5.15;2.20;;;;;;;22.28;59.03;102197.34;5045824;28;20514;-43
2021/07/18 00:56:08;;;;;;;5.88;3.00;;;;;;;22.21;59.28;102194.44;5045847;28;20143;-46
2021/07/18 00:58:36;;;;;;;5.75;2.28;;;;;;;22.17;60.02;102192.78;5045850;28;20106;-44
2021/07/18 01:01:03;;;;;;;5.82;2.60;;;;;;;22.11;60.22;102183.88;5043988;28;20056;-41
2021/07/18 01:03:30;;;;;;;4.15;2.40;;;;;;;22.17;59.80;102190.78;5032775;28;20067;-43
2021/07/18 01:05:56;;;;;;;3.53;2.45;;;;;;;22.12;60.21;102179.88;5044360;28;20073;-46
2021/07/18 01:08:23;;;;;;;5.82;2.40;;;;;;;22.07;60.50;102179.41;5040616;28;20057;-46
2021/07/18 01:10:50;;;;;;;6.22;2.63;;;;;;;22.02;60.68;102180.59;5048801;28;20426;-45
2021/07/18 01:13:18;;;;;;;4.28;2.63;;;;;;;21.96;61.17;102184.13;5048122;28;20111;-43
2021/07/18 01:15:45;;;;;;;5.57;2.63;;;;;;;21.92;61.22;102188.94;5048919;28;20143;-44
2021/07/18 01:18:13;;;;;;;6.15;2.50;;;;;;;21.89;61.65;102187.72;5051986;28;20056;-46
2021/07/18 01:20:50;;;;;;;8.23;3.33;;;;;;;21.82;62.14;102185.59;5048750;28;20048;-43
2021/07/18 01:23:17;;;;;;;9.25;3.78;;;;;;;21.82;62.30;102191.22;5051993;28;20064;-43
2021/07/18 01:25:45;;;;;;;9.35;4.10;;;;;;;21.77;62.86;102185.13;5047358;28;20052;-44
2021/07/18 01:28:13;;;;;;;10.45;4.00;;;;;;;21.76;62.90;102183.53;5049540;28;20456;-45
2021/07/18 01:30:42;;;;;;;7.20;3.60;;;;;;;21.67;63.81;102180.19;5054628;28;20478;-43
2021/07/18 01:33:09;;;;;;;6.00;3.47;;;;;;;21.63;63.79;102182.97;5049105;28;20088;-43
2021/07/18 01:35:38;;;;;;;5.43;3.63;;;;;;;21.65;64.17;102179.78;5052982;28;20052;-44
2021/07/18 01:38:11;;;;;;;5.93;3.70;;;;;;;21.63;64.91;102168.88;5049564;28;20060;-44
2021/07/18 01:40:38;;;;;;;4.97;3.58;;;;;;;21.61;64.49;102178.91;5051486;28;20049;-43
2021/07/18 01:43:05;;;;;;;6.28;3.17;;;;;;;21.64;64.74;102178.16;5047246;28;20056;-53
2021/07/18 01:45:32;;;;;;;6.82;3.55;;;;;;;21.58;64.99;102168.41;5044306;28;20880;-48
2021/07/18 01:47:59;;;;;;;7.18;3.60;;;;;;;21.51;65.53;102171.97;5045672;28;20049;-47
2021/07/18 01:50:28;;;;;;;5.30;3.10;;;;;;;21.49;65.59;102170.72;5048635;28;20044;-42
2021/07/18 01:52:54;;;;;;;6.88;2.63;;;;;;;21.51;65.63;102163.50;5051948;28;20048;-44
2021/07/18 01:55:22;;;;;;;6.47;2.92;;;;;;;21.48;65.65;102163.47;5045486;28;20040;-42
2021/07/18 01:57:50;;;;;;;6.43;3.30;;;;;;;21.43;66.09;102166.63;5046745;28;20516;-43
2021/07/18 02:00:17;;;;;;;6.05;2.78;;;;;;;21.40;66.23;102156.94;5048627;28;20061;-46
2021/07/18 02:02:50;;;;;;;10.13;2.78;;;;;;;21.42;66.13;102159.41;5053884;28;20056;-44
2021/07/18 02:05:18;;;;;;;7.22;2.92;;;;;;;21.36;66.08;102149.66;5048785;28;20494;-43
2021/07/18 02:07:46;;;;;;;4.57;3.05;;;;;;;21.36;66.23;102156.09;5050080;28;20060;-48
2021/07/18 02:10:16;;;;;;;7.20;2.67;;;;;;;21.34;66.70;102141.56;5044236;28;20405;-44
2021/07/18 02:12:45;;;;;;;6.43;2.72;;;;;;;21.31;66.55;102142.38;5048229;28;20048;-43
2021/07/18 02:15:16;;;;;;;5.43;3.13;;;;;;;21.22;67.14;102137.03;5050225;28;20121;-43
2021/07/18 02:17:43;;;;;;;5.43;3.08;;;;;;;21.22;66.91;102145.47;5048986;28;20048;-44
2021/07/18 02:20:13;;;;;;;7.47;2.90;;;;;;;21.14;67.41;102138.13;5050456;28;20079;-42
2021/07/18 02:22:45;;;;;;;11.48;3.53;;;;;;;21.10;67.75;102147.75;5048823;28;20128;-43
2021/07/18 02:25:16;;;;;;;6.43;2.83;;;;;;;21.05;67.63;102131.94;5043500;28;20068;-42
2021/07/18 02:27:43;;;;;;;7.53;3.03;;;;;;;21.09;67.47;102141.28;5047294;28;20135;-54
2021/07/18 02:30:14;;;;;;;6.13;2.60;;;;;;;21.03;67.56;102134.34;5052757;28;20040;-43
2021/07/18 02:32:42;;;;;;;7.63;2.80;;;;;;;20.98;67.47;102133.84;5046096;28;20131;-43
2021/07/18 02:35:11;;;;;;;9.25;2.60;;;;;;;20.97;67.76;102133.03;5046548;28;20304;-51
2021/07/18 02:37:39;;;;;;;5.03;2.35;;;;;;;20.96;67.78;102130.63;5050545;28;20048;-41
2021/07/18 02:40:06;;;;;;;3.65;2.45;;;;;;;20.90;67.67;102130.13;5041899;28;20068;-42
2021/07/18 02:42:35;;;;;;;7.72;2.30;;;;;;;20.88;68.02;102134.53;5048640;28;20076;-46
2021/07/18 02:45:08;;;;;;;4.15;2.67;;;;;;;20.84;68.28;102128.84;5045651;28;20106;-47
2021/07/18 02:47:35;;;;;;;7.38;2.35;;;;;;;20.81;68.28;102135.22;5048379;28;20045;-44
2021/07/18 02:50:05;;;;;;;5.78;2.35;;;;;;;20.78;68.23;102136.03;5041073;28;20053;-46
2021/07/18 02:52:32;;;;;;;6.70;2.50;;;;;;;20.81;68.26;102134.44;5047256;28;20051;-43
2021/07/18 02:54:58;;;;;;;5.18;2.33;;;;;;;20.78;68.28;102127.59;5048099;28;20060;-43
2021/07/18 02:57:25;;;;;;;4.78;2.28;;;;;;;20.75;68.31;102131.16;5050530;28;20167;-41
2021/07/18 02:59:52;;;;;;;7.13;2.50;;;;;;;20.74;68.50;102123.88;5050843;28;20106;-44
2021/07/18 03:02:19;;;;;;;6.75;2.38;;;;;;;20.71;68.18;102119.03;5049225;28;20053;-42
2021/07/18 03:04:46;;;;;;;6.07;2.15;;;;;;;20.69;68.08;102124.22;5046440;28;20041;-46
2021/07/18 03:07:13;;;;;;;5.38;1.80;;;;;;;20.73;68.24;102121.47;5050938;28;20157;-44
2021/07/18 03:09:40;;;;;;;4.10;2.35;;;;;;;20.65;68.56;102115.72;5046762;28;20045;-45
2021/07/18 03:12:08;;;;;;;5.20;2.47;;;;;;;20.70;68.46;102110.97;5043334;28;20041;-43
2021/07/18 03:14:34;;;;;;;6.15;1.77;;;;;;;20.65;68.35;102115.72;5049820;28;20064;-46
2021/07/18 03:17:01;;;;;;;6.10;1.90;;;;;;;20.59;68.48;102116.44;5044311;28;20670;-45
2021/07/18 03:19:28;;;;;;;4.95;2.05;;;;;;;20.56;68.69;102114.38;5046888;28;20048;-44
2021/07/18 03:21:55;;;;;;;3.63;1.83;;;;;;;20.53;68.63;102120.78;5047698;28;20056;-41
2021/07/18 03:24:22;;;;;;;5.00;2.20;;;;;;;20.51;68.95;102114.72;5045823;28;20044;-44
2021/07/18 03:26:49;;;;;;;4.93;2.55;;;;;;;20.52;68.82;102110.69;5043066;28;20079;-43
2021/07/18 03:29:18;;;;;;;5.10;2.15;;;;;;;20.49;68.82;102114.28;5049483;28;20117;-45
2021/07/18 03:31:45;;;;;;;3.42;1.65;;;;;;;20.41;68.89;102110.53;5049448;28;20055;-47
2021/07/18 03:34:12;;;;;;;4.78;2.55;;;;;;;20.37;69.35;102104.06;5042289;28;20398;-43
2021/07/18 03:36:39;;;;;;;13.07;2.95;;;;;;;20.41;69.07;102106.94;5044812;28;20363;-43
2021/07/18 03:39:06;;;;;;;5.10;2.08;;;;;;;20.40;68.87;102102.50;5046828;28;20049;-43
2021/07/18 03:41:33;;;;;;;4.88;2.50;;;;;;;20.46;69.04;102107.44;5044698;28;20064;-47
2021/07/18 03:44:00;;;;;;;3.65;1.75;;;;;;;20.40;68.85;102108.13;5042991;28;20162;-43
2021/07/18 03:46:27;;;;;;;4.45;1.50;;;;;;;20.33;68.85;102108.03;5043768;28;20048;-45
2021/07/18 03:48:54;;;;;;;6.10;2.03;;;;;;;20.33;69.25;102110.84;5045678;28;20056;-46
2021/07/18 03:51:21;;;;;;;3.25;1.75;;;;;;;20.37;68.95;102114.50;5048857;28;20081;-42
2021/07/18 03:53:48;;;;;;;5.03;1.60;;;;;;;20.42;68.80;102111.34;5047168;28;20087;-44
2021/07/18 03:56:14;;;;;;;4.15;1.88;;;;;;;20.41;68.78;102113.34;5046207;28;20045;-46
2021/07/18 03:58:41;;;;;;;5.20;1.73;;;;;;;20.30;69.13;102108.78;5047108;28;20059;-45
2021/07/18 04:01:11;;;;;;;3.50;1.40;;;;;;;20.22;69.28;102112.63;5043943;28;20060;-42
2021/07/18 04:03:40;;;;;;;2.35;1.50;;;;;;;20.18;69.30;102114.56;5045601;28;20045;-44
2021/07/18 04:06:07;;;;;;;5.32;1.63;;;;;;;20.12;69.47;102107.66;5049227;28;20116;-41
2021/07/18 04:08:33;;;;;;;3.72;1.40;;;;;;;20.11;69.48;102108.84;5049284;28;20044;-45
2021/07/18 04:11:00;;;;;;;3.00;1.33;;;;;;;20.10;69.70;102110.00;5047955;28;20052;-43
2021/07/18 04:13:27;;;;;;;3.17;2.03;;;;;;;20.11;69.46;102122.91;5043963;28;20072;-43
2021/07/18 04:15:54;;;;;;;5.72;1.77;;;;;;;20.11;69.34;102111.66;5044583;28;20053;-49
2021/07/18 04:18:20;;;;;;;7.13;1.60;;;;;;;20.11;69.43;102111.66;5047059;28;20052;-44
2021/07/18 04:20:47;;;;;;;4.10;1.27;;;;;;;20.05;69.70;102117.59;5047859;28;20127;-48
2021/07/18 04:23:16;;;;;;;2.35;1.23;;;;;;;20.04;69.15;102109.53;5028423;28;20059;-49
2021/07/18 04:25:46;;;;;;;1.95;0.90;;;;;;;20.05;69.59;102111.16;5047114;28;20048;-44
2021/07/18 04:28:15;;;;;;;2.40;1.45;;;;;;;20.01;69.59;102113.09;5048239;28;20056;-44
2021/07/18 04:30:42;;;;;;;1.63;0.80;;;;;;;19.99;69.44;102107.84;5040289;28;20073;-44
2021/07/18 04:33:09;;;;;;;4.68;1.20;;;;;;;20.00;69.56;102106.66;5053318;28;20504;-43
2021/07/18 04:35:36;;;;;;;1.58;1.10;;;;;;;19.97;69.59;102104.59;5048741;28;20067;-43
2021/07/18 04:38:03;;;;;;;2.40;0.90;;;;;;;19.95;69.78;102109.81;5051511;28;20049;-46
2021/07/18 04:40:31;;;;;;;3.45;1.10;;;;;;;19.94;69.50;102108.16;5045413;28;20135;-41
2021/07/18 04:42:57;;;;;;;2.97;1.00;;;;;;;19.91;69.87;102114.53;5044340;28;20049;-45
2021/07/18 04:45:25;;;;;;;1.92;1.15;;;;;;;19.91;69.60;102108.91;5046714;28;20057;-42
2021/07/18 04:47:56;;;;;;;3.22;1.05;;;;;;;19.90;69.98;102107.31;5048942;28;20040;-41
2021/07/18 04:50:27;;;;;;;4.43;1.15;;;;;;;19.92;69.88;102116.16;5045618;28;20053;-48
2021/07/18 04:52:54;;;;;;;3.65;1.13;;;;;;;19.92;69.86;102112.53;5049752;28;20048;-45
2021/07/18 04:55:22;;;;;;;7.40;1.65;;;;;;;19.87;69.86;102115.66;5046604;28;20052;-48
2021/07/18 04:57:49;;;;;;;3.95;1.10;;;;;;;19.85;69.84;102118.06;5054602;28;20056;-42
2021/07/18 05:00:20;;;;;;;2.80;1.17;;;;;;;19.87;70.06;102121.28;5049418;28;20053;-43
2021/07/18 05:02:47;;;;;;;;;;;;;;;19.83;69.66;102124.03;5036993;28;20146;-42
2021/07/18 05:05:17;;;;;;;4.53;1.40;;;;;;;19.88;69.64;102115.28;5049441;28;19959;-44
2021/07/18 05:07:45;;;;;;;2.00;0.63;;;;;;;19.89;69.62;102125.34;5049883;28;20521;-43
2021/07/18 05:10:12;;;;;;;2.25;0.93;;;;;;;19.92;69.78;102127.41;5048440;28;20132;-43
2021/07/18 05:12:39;;;;;;;2.35;0.98;;;;;;;19.96;69.44;102119.84;5034298;28;20044;-50
2021/07/18 05:15:09;;;;;;;1.95;0.95;;;;;;;19.96;69.64;102122.66;5043773;28;20052;-43
2021/07/18 05:17:39;;;;;;;5.25;1.42;;;;;;;19.95;69.80;102131.47;5053326;28;20163;-44
2021/07/18 05:20:07;;;;;;;4.45;1.92;;;;;;;19.92;69.81;102121.78;5032690;28;20057;-43
2021/07/18 05:22:34;;;;;;;2.22;0.85;;;;;;;19.94;70.00;102127.84;5052411;28;20434;-44
2021/07/18 05:25:03;;;;;;;1.63;0.80;;;;;;;19.95;70.14;102123.03;5049907;28;20410;-42
2021/07/18 05:27:30;;;;;;;1.17;1.00;;;;;;;19.96;70.22;102128.28;5049633;28;20134;-56
2021/07/18 05:29:57;;;;;;;2.92;1.10;;;;;;;19.93;70.03;102128.22;5052096;28;20044;-45
2021/07/18 05:32:24;;;;;;;3.33;1.10;;;;;;;19.91;70.20;102130.59;5044259;28;20489;-44
2021/07/18 05:34:51;;;;;;;3.83;1.05;;;;;;;19.96;70.22;102131.09;5050590;28;20041;-43
2021/07/18 05:37:17;;;;;;;4.38;1.13;;;;;;;20.01;70.14;102130.75;5033473;28;20062;-44
2021/07/18 05:39:44;;;;;;;3.10;1.20;;;;;;;19.99;70.14;102138.78;5054628;28;20139;-43
2021/07/18 05:42:12;;;;;;;3.22;1.40;;;;;;;20.02;70.15;102132.41;5048388;28;20402;-42
2021/07/18 05:44:39;;;;;;;3.85;1.33;;;;;;;20.03;70.52;102144.47;5044893;28;20045;-46
2021/07/18 05:47:06;;;;;;;3.05;1.20;;;;;;;20.05;70.47;102136.47;5046554;28;20129;-42
2021/07/18 05:49:33;;;;;;;5.35;1.25;;;;;;;20.09;70.24;102151.41;5046717;28;20049;-43
2021/07/18 05:51:59;;;;;;;3.20;1.50;;;;;;;20.14;70.22;102147.47;5047848;28;20052;-42
2021/07/18 05:54:27;;;;;;;2.85;0.90;;;;;;;20.19;70.11;102152.75;5044880;28;20405;-43
2021/07/18 05:56:53;;;;;;;6.20;1.38;;;;;;;20.22;69.84;102152.00;5034785;28;20049;-52
2021/07/18 05:59:20;;;;;;;4.65;1.83;;;;;;;20.22;69.82;102144.38;5049694;28;20060;-45
2021/07/18 06:01:48;;;;;;;6.82;2.38;;;;;;;20.16;70.05;102150.69;5044004;28;20497;-44
2021/07/18 06:04:15;;;;;;;1.55;1.15;;;;;;;20.07;70.72;102150.94;5049301;28;20057;-43
2021/07/18 06:06:44;;;;;;;2.47;0.93;;;;;;;19.95;70.68;102157.59;5051506;28;20058;-43
2021/07/18 06:09:14;;;;;;;3.42;1.30;;;;;;;19.92;70.92;102158.34;5047941;28;20144;-43
2021/07/18 06:11:40;;;;;;;3.70;1.10;;;;;;;19.96;70.78;102159.19;5043799;28;20136;-47
2021/07/18 06:14:07;;;;;;;4.20;1.60;;;;;;;20.00;71.05;102157.28;5048238;28;20065;-49
2021/07/18 06:16:34;;;;;;;3.63;1.38;;;;;;;20.01;70.94;102167.31;5046750;28;20053;-52
2021/07/18 06:19:01;;;;;;;2.70;1.08;;;;;;;20.00;71.26;102156.44;5051116;28;20213;-46
2021/07/18 06:21:28;;;;;;;4.82;1.48;;;;;;;20.08;71.16;102161.00;5047741;28;20055;-44
2021/07/18 06:23:55;;;;;;;5.72;1.02;;;;;;;20.13;70.98;102165.50;5051863;28;20738;-44
2021/07/18 06:26:22;;;;;;;3.97;1.10;;;;;;;20.07;71.35;102155.78;5046426;28;20051;-43
2021/07/18 06:28:50;;;;;;;3.13;1.23;;;;;;;20.04;71.41;102163.75;5044137;28;20044;-43
2021/07/18 06:31:18;;;;;;;3.85;1.00;;;;;;;20.05;71.39;102156.97;5044572;28;20076;-43
2021/07/18 06:33:47;;;;;;;2.53;1.75;;;;;;;20.16;71.42;102150.69;5049476;28;20127;-43
2021/07/18 06:36:14;;;;;;;4.65;2.10;;;;;;;20.16;71.66;102157.13;5050999;28;20526;-44
2021/07/18 06:38:41;;;;;;;2.30;1.02;;;;;;;20.18;71.44;102162.38;5031065;28;20390;-47
2021/07/18 06:41:08;;;;;;;2.20;1.63;;;;;;;20.23;71.69;102159.25;5047689;28;20055;-42
2021/07/18 06:43:34;;;;;;;3.17;1.30;;;;;;;20.24;71.34;102158.91;5033491;28;20052;-43
2021/07/18 06:46:01;;;;;;;2.55;1.92;;;;;;;20.31;71.47;102152.56;5045132;28;20144;-41
2021/07/18 06:48:28;;;;;;;3.17;1.23;;;;;;;20.38;71.38;102161.16;5043181;28;22362;-47
2021/07/18 06:50:56;;;;;;;3.83;1.30;;;;;;;20.45;71.16;102150.81;5048739;28;20181;-43
2021/07/18 06:53:24;;;;;;;2.30;1.65;;;;;;;20.48;71.21;102155.69;5053448;28;20545;-46
2021/07/18 06:55:51;;;;;;;2.28;0.80;;;;;;;20.52;70.99;102155.72;5051909;28;20044;-43
2021/07/18 06:58:17;;;;;;;1.52;1.00;;;;;;;20.54;70.56;102154.16;5046181;28;20054;-43
2021/07/18 07:00:44;;;;;;;9.18;1.67;;;;;;;20.63;70.47;102159.50;5045368;28;20057;-45
2021/07/18 07:03:11;;;;;;;2.70;1.00;;;;;;;20.65;69.99;102155.13;5025890;28;20135;-45
2021/07/18 07:05:38;;;;;;;1.67;0.98;;;;;;;20.72;69.62;102162.88;5048762;28;20060;-50
2021/07/18 07:08:05;;;;;;;1.65;0.80;;;;;;;20.77;69.15;102156.09;5044134;28;20040;-46
2021/07/18 07:10:32;;;;;;;3.53;1.40;;;;;;;20.80;69.17;102156.16;5045234;28;20048;-42
2021/07/18 07:12:58;;;;;;;4.78;0.77;;;;;;;20.80;68.78;102161.78;5046698;28;20502;-42
2021/07/18 07:15:25;;;;;;;1.52;0.73;;;;;;;20.91;68.65;102162.75;5043332;28;20292;-46
2021/07/18 07:17:52;;;;;;;2.00;1.00;;;;;;;20.98;68.16;102168.47;5046835;28;20128;-43
2021/07/18 07:20:22;;;;;;;1.33;1.10;;;;;;;21.04;67.41;102164.13;5030353;28;20140;-44
2021/07/18 07:22:49;;;;;;;2.38;0.90;;;;;;;21.13;67.57;102161.84;5048850;28;20045;-45
2021/07/18 07:25:16;;;;;;;3.40;1.00;;;;;;;21.21;67.30;102163.56;5050257;28;20056;-42
2021/07/18 07:27:44;;;;;;;2.08;0.90;;;;;;;21.34;67.71;102175.38;5045926;28;20094;-43
2021/07/18 07:30:13;;;;;;;0.70;0.68;;;;;;;21.43;67.59;102166.63;5050174;28;20819;-51
2021/07/18 07:32:40;;;;;;;3.17;1.23;;;;;;;21.52;67.29;102167.97;5049564;28;20059;-43
2021/07/18 07:35:09;;;;;;;0.65;0.65;;;;;;;21.66;66.98;102175.75;5045484;28;20075;-44
2021/07/18 07:37:36;;;;;;;1.35;1.08;;;;;;;21.73;66.90;102170.19;5044621;28;20139;-44
2021/07/18 07:40:04;;;;;;;7.70;0.93;;;;;;;21.78;66.58;102167.03;5050579;28;20505;-42
2021/07/18 07:42:31;;;;;;;2.72;0.88;;;;;;;21.83;66.42;102170.31;5045246;28;20052;-45
2021/07/18 07:44:58;;;;;;;1.40;0.60;;;;;;;21.97;67.05;102166.03;5053827;28;20074;-43
2021/07/18 07:47:26;;;;;;;2.30;1.10;;;;;;;22.15;67.15;102167.81;5045413;28;20052;-44
2021/07/18 07:49:53;;;;;;;1.00;0.80;;;;;;;22.34;67.23;102176.03;5050031;28;20143;-45
2021/07/18 07:52:20;;;;;;;1.45;0.93;;;;;;;22.58;67.58;102171.78;5048726;28;20044;-44
2021/07/18 07:54:49;;;;;;;2.40;1.00;;;;;;;22.81;66.90;102165.88;5048623;28;20059;-43
2021/07/18 07:57:15;;;;;;;3.90;0.90;;;;;;;23.07;66.84;102174.09;5045555;28;20048;-46
2021/07/18 07:59:45;;;;;;;3.92;1.08;;;;;;;23.39;66.02;102177.91;5046802;28;20052;-47
2021/07/18 08:02:13;;;;;;;2.05;1.50;;;;;;;23.75;65.04;102178.00;5044980;28;20067;-47
2021/07/18 08:04:40;;;;;;;2.28;1.02;;;;;;;24.12;63.88;102169.97;5041199;28;20048;-44
2021/07/18 08:07:06;;;;;;;2.15;0.98;;;;;;;24.68;62.28;102167.13;5048404;28;20498;-44
2021/07/18 08:09:33;;;;;;;1.85;0.88;;;;;;;25.15;60.38;102162.16;5050072;28;23801;-46
2021/07/18 08:12:00;;;;;;;3.03;0.90;;;;;;;25.63;58.81;102160.31;5047868;28;20514;-47
2021/07/18 08:14:28;;;;;;;3.22;1.83;;;;;;;26.10;57.27;102166.47;5048081;28;20052;-44
2021/07/18 08:16:55;;;;;;;2.22;0.77;;;;;;;26.55;55.48;102168.94;5033983;28;20090;-44
2021/07/18 08:19:22;;;;;;;2.35;1.13;;;;;;;26.90;54.14;102162.06;5046153;28;20048;-49
2021/07/18 08:21:49;;;;;;;3.65;0.82;;;;;;;27.29;53.22;102160.81;5050828;28;20048;-45
2021/07/18 08:24:15;;;;;;;4.55;0.73;;;;;;;27.64;52.13;102161.13;5048765;28;20498;-43
2021/07/18 08:26:42;;;;;;;3.13;1.65;;;;;;;27.88;51.49;102162.00;5049127;28;20063;-43
2021/07/18 08:29:09;;;;;;;1.15;0.82;;;;;;;27.79;50.26;102161.75;5047943;28;20529;-44
2021/07/18 08:31:36;;;;;;;3.80;1.30;;;;;;;27.88;49.87;102159.16;5035773;28;20055;-49
2021/07/18 08:34:03;;;;;;;1.60;0.80;;;;;;;28.07;49.76;102144.22;5044149;28;20106;-43
2021/07/18 08:36:30;;;;;;;4.05;1.23;;;;;;;28.30;49.10;102147.09;5046143;28;20065;-44
2021/07/18 08:38:57;;;;;;;4.65;1.13;;;;;;;28.43;48.54;102143.63;5047954;28;20170;-47
2021/07/18 08:41:26;;;;;;;5.95;1.17;;;;;;;28.48;47.98;102143.13;5051260;28;20067;-45
2021/07/18 08:43:53;;;;;;;3.35;1.05;;;;;;;28.46;47.86;102148.47;5043369;28;20195;-43
2021/07/18 08:46:20;;;;;;;3.17;1.20;;;;;;;28.30;47.46;102138.53;5042830;28;20067;-43
2021/07/18 08:48:48;;;;;;;3.03;1.10;;;;;;;28.48;47.42;102140.28;5045027;28;20814;-45
2021/07/18 08:51:16;;;;;;;1.40;0.98;;;;;;;28.56;47.44;102139.72;5041645;28;20088;-52
2021/07/18 08:53:43;;;;;;;1.70;0.90;;;;;;;28.63;47.25;102135.94;5038759;28;20052;-42
2021/07/18 08:56:11;;;;;;;2.95;1.02;;;;;;;28.96;46.88;102137.72;5047966;28;20045;-44
2021/07/18 08:58:40;;;;;;;1.65;0.55;;;;;;;29.26;46.29;102120.38;5046706;28;20070;-43
2021/07/18 09:01:07;;;;;;;2.90;0.85;;;;;;;29.45;44.91;102133.81;5048597;28;20387;-45
2021/07/18 09:03:35;;;;;;;3.20;0.82;;;;;;;29.51;44.71;102134.09;5046166;28;20463;-49
2021/07/18 09:06:08;;;;;;;2.45;1.10;;;;;;;29.67;43.56;102125.56;5042997;28;20055;-46
2021/07/18 09:08:47;;;;;;;2.88;1.20;;;;;;;29.74;43.12;102116.03;5039843;28;20056;-54
2021/07/18 09:11:25;;;;;;;5.32;1.13;;;;;;;29.78;43.62;102119.59;5042820;28;20053;-51
2021/07/18 09:14:00;;;;;;;2.03;0.90;;;;;;;29.73;42.33;102111.56;5043712;28;20068;-48
2021/07/18 09:16:40;;;;;;;3.67;1.25;;;;;;;29.37;43.08;102115.25;5024559;28;20049;-44
2021/07/18 09:19:22;;;;;;;2.22;1.00;;;;;;;29.25;43.60;102107.38;5045668;28;20060;-46
2021/07/18 09:22:09;;;;;;;2.22;1.52;;;;;;;29.39;43.97;102112.75;5047572;28;20057;-45
2021/07/18 09:24:44;;;;;;;2.33;1.15;;;;;;;29.55;42.46;102115.66;5039773;28;20421;-43
2021/07/18 09:27:13;;;;;;;2.53;1.05;;;;;;;29.65;43.02;102110.94;5046609;28;20375;-46
2021/07/18 09:29:47;;;;;;;3.03;1.33;;;;;;;29.86;42.65;102112.50;5039267;28;20561;-48
2021/07/18 09:32:22;;;;;;;2.40;1.70;;;;;;;29.98;42.32;102108.94;5044515;28;20041;-46
2021/07/18 09:34:51;;;;;;;6.25;1.92;;;;;;;30.11;41.98;102101.25;5044679;28;20116;-45
2021/07/18 09:37:30;;;;;;;3.00;1.05;;;;;;;29.99;41.76;102104.84;5043395;28;20576;-48
2021/07/18 09:39:58;;;;;;;3.60;1.13;;;;;;;30.01;42.66;102105.19;5045125;28;20064;-46
2021/07/18 09:42:36;;;;;;;3.45;1.73;;;;;;;29.92;41.86;102108.66;5046862;28;20716;-47
2021/07/18 09:45:07;;;;;;;0.77;0.77;;;;;;;29.77;42.43;102110.22;5047479;28;20055;-50
2021/07/18 09:47:50;;;;;;;2.67;1.38;;;;;;;29.87;42.61;102106.34;5047747;28;20052;-48
2021/07/18 09:50:21;;;;;;;2.00;0.98;;;;;;;29.86;42.23;102109.66;5048789;28;20069;-44
2021/07/18 09:52:48;;;;;;;3.83;1.10;;;;;;;29.88;42.39;102107.16;5045920;28;20041;-43
2021/07/18 09:55:23;;;;;;;1.67;0.90;;;;;;;29.76;42.15;102102.91;5046236;28;20103;-46
2021/07/18 09:57:52;;;;;;;2.70;1.77;;;;;;;29.83;41.90;102108.50;5045213;28;20056;-43
2021/07/18 10:00:22;;;;;;;1.08;1.08;;;;;;;29.77;42.15;102107.38;5043280;28;20048;-46
2021/07/18 10:02:51;;;;;;;1.95;1.42;;;;;;;29.85;41.91;102111.69;5046554;28;21508;-53
2021/07/18 10:05:26;;;;;;;2.15;1.17;;;;;;;29.83;41.33;102107.69;5045626;28;20049;-47
2021/07/18 10:08:05;;;;;;;3.65;0.95;;;;;;;29.86;41.64;102098.22;5048267;28;20109;-50
2021/07/18 10:10:36;;;;;;;2.53;1.00;;;;;;;29.93;41.98;102106.59;5046024;28;20064;-46
2021/07/18 10:13:03;;;;;;;;;;;;;;;30.06;41.34;102110.34;5042848;28;20057;-46
2021/07/18 10:15:34;;;;;;;1.63;1.10;;;;;;;29.91;41.77;102101.34;5030760;28;19928;-51
2021/07/18 10:18:02;;;;;;;4.38;1.02;;;;;;;29.71;41.88;102103.44;5033357;28;20598;-46
2021/07/18 10:20:31;;;;;;;2.20;1.38;;;;;;;29.64;41.83;102097.09;5047081;28;20057;-45
2021/07/18 10:23:02;;;;;;;2.20;1.23;;;;;;;29.73;41.17;102097.31;5029407;28;20052;-46
2021/07/18 10:25:32;;;;;;;2.17;1.00;;;;;;;29.66;41.50;102094.59;5051230;28;20053;-48
2021/07/18 10:27:59;;;;;;;2.03;1.20;;;;;;;29.50;41.71;102095.38;5048601;28;20343;-46
2021/07/18 10:30:31;;;;;;;2.13;1.42;;;;;;;29.34;41.66;102089.66;5031280;28;20071;-50
2021/07/18 10:33:01;;;;;;;2.03;1.27;;;;;;;29.26;41.84;102089.00;5042765;28;20136;-52
2021/07/18 10:35:31;;;;;;;5.60;1.73;;;;;;;29.19;42.05;102094.84;5046401;28;20851;-50
2021/07/18 10:38:23;;;;;;;3.95;1.17;;;;;;;29.21;42.04;102091.56;5046001;28;20049;-49
2021/07/18 10:40:50;;;;;;;3.05;1.23;;;;;;;29.22;42.18;102091.16;5043437;28;20044;-47
2021/07/18 10:43:45;;;;;;;3.95;2.28;;;;;;;29.05;41.49;102082.94;5044880;28;20164;-48
2021/07/18 10:46:15;;;;;;;1.27;1.08;;;;;;;29.01;42.35;102088.75;5038351;28;20826;-51
2021/07/18 10:48:52;;;;;;;1.35;1.05;;;;;;;28.94;42.39;102083.97;5047236;28;20134;-49
2021/07/18 10:51:21;;;;;;;3.75;1.20;;;;;;;28.83;42.60;102089.09;5044963;28;20570;-49
2021/07/18 10:53:50;;;;;;;3.65;1.25;;;;;;;28.75;42.89;102086.84;5044251;28;20638;-49
2021/07/18 10:56:20;;;;;;;2.75;1.25;;;;;;;28.47;43.26;102081.66;5046177;28;20060;-50
2021/07/18 10:58:50;;;;;;;1.85;1.27;;;;;;;28.27;43.70;102079.63;5048538;28;20055;-51
2021/07/18 11:01:23;;;;;;;1.95;1.38;;;;;;;28.23;44.33;102075.19;5045796;28;20138;-52
2021/07/18 11:03:51;;;;;;;1.23;1.10;;;;;;;28.20;44.50;102076.88;5045181;28;20060;-44
2021/07/18 11:06:21;;;;;;;2.45;1.05;;;;;;;28.04;44.90;102070.28;5050585;28;20048;-48
2021/07/18 11:09:06;;;;;;;1.40;1.30;;;;;;;28.04;44.69;102076.75;5030275;28;20124;-49
2021/07/18 11:11:44;;;;;;;1.13;1.02;;;;;;;27.96;44.98;102069.53;5046280;28;20088;-49
2021/07/18 11:14:24;;;;;;;2.70;1.50;;;;;;;27.92;44.54;102063.13;5049723;28;20056;-47
2021/07/18 11:17:00;;;;;;;1.55;1.45;;;;;;;27.67;45.21;102074.09;5046370;28;20110;-45
2021/07/18 11:19:39;;;;;;;3.53;1.33;;;;;;;27.50;45.51;102063.81;5047552;28;20051;-49
2021/07/18 11:22:14;;;;;;;3.28;0.82;;;;;;;27.30;46.17;102065.72;5045737;28;20045;-46
2021/07/18 11:24:56;;;;;;;4.05;1.02;;;;;;;27.08;47.08;102066.03;5047578;28;20480;-50
2021/07/18 11:27:27;;;;;;;;;;;;;;;27.00;47.09;102058.84;5046361;28;20105;-49
2021/07/18 11:29:55;;;;;;;2.67;1.08;;;;;;;27.04;47.03;102056.72;5047679;28;19967;-52
2021/07/18 11:32:26;;;;;;;1.55;1.10;;;;;;;27.13;47.44;102061.91;5045814;28;20044;-45
2021/07/18 11:34:54;;;;;;;5.68;1.73;;;;;;;26.94;47.71;102054.84;5046472;28;20140;-46